createdAt,value
2022-09-01T00:01:48.912Z,12.80
2022-09-01T00:04:19.197Z,10.90
2022-09-01T00:06:48.427Z,10.07
2022-09-01T00:09:21.196Z,9.02
2022-09-01T00:11:53.764Z,12.18
2022-09-01T00:14:29.624Z,11.25
2022-09-01T00:17:01.735Z,10.60
2022-09-01T00:19:29.590Z,11.00
2022-09-01T00:21:57.228Z,13.77
2022-09-01T00:24:25.969Z,10.77
2022-09-01T00:26:53.718Z,9.73
2022-09-01T00:29:21.023Z,12.77
2022-09-01T00:31:47.860Z,11.32
2022-09-01T00:34:14.775Z,12.45
2022-09-01T00:36:41.656Z,9.98
2022-09-01T00:39:08.941Z,9.25
2022-09-01T00:41:39.676Z,11.70
2022-09-01T00:44:11.860Z,11.10
2022-09-01T00:46:54.965Z,11.25
2022-09-01T00:49:47.477Z,11.93
2022-09-01T00:52:19.404Z,11.35
2022-09-01T00:54:53.595Z,10.77
2022-09-01T00:57:21.152Z,11.05
2022-09-01T01:00:01.857Z,11.20
2022-09-01T01:02:28.529Z,9.95
2022-09-01T01:05:00.429Z,13.40
2022-09-01T01:07:28.362Z,12.43
2022-09-01T01:09:55.800Z,12.57
2022-09-01T01:12:23.674Z,13.23
2022-09-01T01:14:50.944Z,12.02
2022-09-01T01:17:23.017Z,12.23
2022-09-01T01:20:14.938Z,11.85
2022-09-01T01:23:03.367Z,12.82
2022-09-01T01:25:41.836Z,9.88
2022-09-01T01:28:11.364Z,12.07
2022-09-01T01:30:41.812Z,10.50
2022-09-01T01:33:08.781Z,12.60
2022-09-01T01:35:36.239Z,11.40
2022-09-01T01:38:04.986Z,11.63
2022-09-01T01:40:31.501Z,11.32
2022-09-01T01:45:25.767Z,10.45
2022-09-01T01:47:53.639Z,11.52
2022-09-01T01:50:25.762Z,14.73
2022-09-01T01:52:55.194Z,16.38
2022-09-01T01:55:28.905Z,10.10
2022-09-01T01:57:58.186Z,10.05
2022-09-01T02:00:30.371Z,10.88
2022-09-01T02:02:58.571Z,13.45
2022-09-01T02:05:29.888Z,10.93
2022-09-01T02:08:01.699Z,10.55
2022-09-01T02:10:31.483Z,11.50
2022-09-01T02:13:03.835Z,12.68
2022-09-01T02:15:35.053Z,10.73
2022-09-01T02:18:05.000Z,13.32
2022-09-01T02:20:32.775Z,11.45
2022-09-01T02:23:10.467Z,11.73
2022-09-01T02:26:05.156Z,13.65
2022-09-01T02:28:37.214Z,10.85
2022-09-01T02:31:08.762Z,11.55
2022-09-01T02:33:36.501Z,12.15
2022-09-01T02:36:14.127Z,14.48
2022-09-01T02:38:45.901Z,11.73
2022-09-01T02:41:14.557Z,9.70
2022-09-01T02:43:43.484Z,9.73
2022-09-01T02:46:10.334Z,9.73
2022-09-01T02:51:08.209Z,11.13
2022-09-01T02:53:35.891Z,13.45
2022-09-01T02:56:09.448Z,11.15
2022-09-01T02:58:45.615Z,10.65
2022-09-01T03:01:21.394Z,12.37
2022-09-01T03:03:54.267Z,11.63
2022-09-01T03:06:24.014Z,10.50
2022-09-01T03:08:52.689Z,13.20
2022-09-01T03:11:21.847Z,12.68
2022-09-01T03:13:48.323Z,10.63
2022-09-01T03:18:43.843Z,12.02
2022-09-01T03:23:45.255Z,12.57
2022-09-01T03:26:12.654Z,10.38
2022-09-01T03:28:40.369Z,9.63
2022-09-01T03:31:07.378Z,11.63
2022-09-01T03:33:34.393Z,12.48
2022-09-01T03:36:01.164Z,13.07
2022-09-01T03:40:58.982Z,12.98
2022-09-01T03:43:27.771Z,13.25
2022-09-01T03:46:02.270Z,11.77
2022-09-01T03:48:32.048Z,12.80
2022-09-01T03:51:03.056Z,12.48
2022-09-01T03:53:36.652Z,14.02
2022-09-01T03:56:05.385Z,12.50
2022-09-01T03:58:33.133Z,11.48
2022-09-01T04:01:02.791Z,16.98
2022-09-01T04:03:34.439Z,11.75
2022-09-01T04:06:03.169Z,11.30
2022-09-01T04:08:33.490Z,14.00
2022-09-01T04:11:05.099Z,13.20
2022-09-01T04:13:39.152Z,12.35
2022-09-01T04:16:29.718Z,10.85
2022-09-01T04:18:56.226Z,18.52
2022-09-01T04:21:22.646Z,12.32
2022-09-01T04:23:49.112Z,12.18
2022-09-01T04:26:20.313Z,11.50
2022-09-01T04:28:50.712Z,13.10
2022-09-01T04:31:20.986Z,15.93
2022-09-01T04:33:55.214Z,12.57
2022-09-01T04:36:25.842Z,10.57
2022-09-01T04:38:56.083Z,15.40
2022-09-01T04:41:33.269Z,10.75
2022-09-01T04:44:05.845Z,10.75
2022-09-01T04:46:42.151Z,14.43
2022-09-01T04:49:13.057Z,13.80
2022-09-01T04:51:42.308Z,11.52
2022-09-01T04:54:14.137Z,12.18
2022-09-01T04:56:45.352Z,13.45
2022-09-01T04:59:17.184Z,15.90
2022-09-01T05:01:51.002Z,13.55
2022-09-01T05:04:24.342Z,13.00
2022-09-01T05:07:00.659Z,13.85
2022-09-01T05:09:37.111Z,15.63
2022-09-01T05:12:36.015Z,10.93
2022-09-01T05:15:06.419Z,12.65
2022-09-01T05:17:33.280Z,12.55
2022-09-01T05:20:00.761Z,11.60
2022-09-01T05:22:27.380Z,13.43
2022-09-01T05:25:11.716Z,13.27
2022-09-01T05:27:51.452Z,14.15
2022-09-01T05:30:19.808Z,11.88
2022-09-01T05:32:48.962Z,15.73
2022-09-01T05:35:17.287Z,11.25
2022-09-01T05:37:44.155Z,12.55
2022-09-01T05:40:16.107Z,12.77
2022-09-01T05:42:44.727Z,13.13
2022-09-01T05:45:11.901Z,13.18
2022-09-01T05:47:39.984Z,13.38
2022-09-01T05:50:14.220Z,12.20
2022-09-01T05:52:44.787Z,15.40
2022-09-01T05:55:11.620Z,14.00
2022-09-01T05:57:41.888Z,13.93
2022-09-01T06:00:13.901Z,12.57
2022-09-01T06:02:42.717Z,13.45
2022-09-01T06:05:15.133Z,13.63
2022-09-01T06:07:42.919Z,12.93
2022-09-01T06:10:10.986Z,13.38
2022-09-01T06:12:37.702Z,11.73
2022-09-01T06:15:07.131Z,9.40
2022-09-01T06:17:36.846Z,10.02
2022-09-01T06:20:10.409Z,9.57
2022-09-01T06:22:38.801Z,9.15
2022-09-01T06:25:06.637Z,9.32
2022-09-01T06:27:42.579Z,12.23
2022-09-01T06:30:20.155Z,13.00
2022-09-01T06:32:54.013Z,14.45
2022-09-01T06:35:22.160Z,9.00
2022-09-01T06:37:48.781Z,9.00
2022-09-01T06:43:09.715Z,8.52
2022-09-01T06:45:49.883Z,8.45
2022-09-01T06:48:17.754Z,9.57
2022-09-01T06:53:34.546Z,8.40
2022-09-01T06:56:03.545Z,10.40
2022-09-01T06:58:31.122Z,8.93
2022-09-01T07:00:57.692Z,10.48
2022-09-01T07:03:25.800Z,9.93
2022-09-01T07:06:02.304Z,9.02
2022-09-01T07:14:32.902Z,9.65
2022-09-01T07:19:49.153Z,8.98
2022-09-01T07:25:17.919Z,9.48
2022-09-01T07:28:02.362Z,9.70
2022-09-01T07:30:29.016Z,7.55
2022-09-01T07:32:55.622Z,8.23
2022-09-01T07:35:24.082Z,7.05
2022-09-01T07:43:51.892Z,7.28
2022-09-01T07:46:37.426Z,9.93
2022-09-01T07:51:55.474Z,6.60
2022-09-01T07:54:23.899Z,6.78
2022-09-01T07:56:50.793Z,5.80
2022-09-01T07:59:18.253Z,8.00
2022-09-01T08:01:52.941Z,7.20
2022-09-01T08:04:22.929Z,8.52
2022-09-01T08:06:50.164Z,5.40
2022-09-01T08:09:33.004Z,5.55
2022-09-01T08:12:05.907Z,4.93
2022-09-01T08:14:37.320Z,6.10
2022-09-01T08:19:53.397Z,6.00
2022-09-01T08:22:32.533Z,9.52
2022-09-01T08:25:07.560Z,5.22
2022-09-01T08:27:38.707Z,8.63
2022-09-01T08:30:07.464Z,6.47
2022-09-01T08:32:35.616Z,9.55
2022-09-01T08:35:04.818Z,7.75
2022-09-01T08:37:31.571Z,8.18
2022-09-01T08:39:58.304Z,10.45
2022-09-01T08:42:39.953Z,9.85
2022-09-01T08:45:13.035Z,7.82
2022-09-01T08:48:04.624Z,8.13
2022-09-01T08:50:26.524Z,9.77
2022-09-01T08:53:38.298Z,8.60
2022-09-01T08:56:05.879Z,7.68
2022-09-01T08:58:32.927Z,8.80
2022-09-01T09:01:47.189Z,7.47
2022-09-01T09:04:19.780Z,8.38
2022-09-01T09:07:37.451Z,6.18
2022-09-01T09:10:14.348Z,5.53
2022-09-01T09:13:09.695Z,7.57
2022-09-01T09:15:44.595Z,6.38
2022-09-01T09:18:59.293Z,5.05
2022-09-01T09:21:32.519Z,6.32
2022-09-01T09:24:25.097Z,5.40
2022-09-01T09:26:56.785Z,5.88
2022-09-01T09:29:23.502Z,6.22
2022-09-01T09:32:02.840Z,7.28
2022-09-01T09:34:33.606Z,6.75
2022-09-01T09:37:21.713Z,6.30
2022-09-01T09:40:10.431Z,5.32
2022-09-01T09:42:42.983Z,6.07
2022-09-01T09:45:21.416Z,6.68
2022-09-01T09:47:48.516Z,5.53
2022-09-01T09:50:20.851Z,6.22
2022-09-01T09:52:49.434Z,5.72
2022-09-01T09:55:28.253Z,5.88
2022-09-01T09:58:01.627Z,5.97
2022-09-01T10:00:29.755Z,5.53
2022-09-01T10:03:07.958Z,5.63
2022-09-01T10:05:39.859Z,8.43
2022-09-01T10:08:37.207Z,5.35
2022-09-01T10:11:05.711Z,5.25
2022-09-01T10:13:36.490Z,6.30
2022-09-01T10:16:09.248Z,5.78
2022-09-01T10:18:40.877Z,4.90
2022-09-01T10:21:33.099Z,6.20
2022-09-01T10:24:17.626Z,4.95
2022-09-01T10:26:52.852Z,5.57
2022-09-01T10:29:34.821Z,5.97
2022-09-01T10:32:30.690Z,5.93
2022-09-01T10:34:59.310Z,6.07
2022-09-01T10:37:34.939Z,6.35
2022-09-01T10:40:20.603Z,6.43
2022-09-01T10:42:55.020Z,6.60
2022-09-01T10:45:33.084Z,6.10
2022-09-01T10:48:48.565Z,5.97
2022-09-01T10:51:36.401Z,5.82
2022-09-01T10:54:05.669Z,5.25
2022-09-01T10:56:44.302Z,5.55
2022-09-01T10:59:32.759Z,5.93
2022-09-01T11:02:29.446Z,7.07
2022-09-01T11:04:59.115Z,5.30
2022-09-01T11:07:58.155Z,6.40
2022-09-01T11:10:32.401Z,7.00
2022-09-01T11:13:30.012Z,6.57
2022-09-01T11:16:45.481Z,8.75
2022-09-01T11:19:46.963Z,7.32
2022-09-01T11:22:18.515Z,5.32
2022-09-01T11:25:12.560Z,5.18
2022-09-01T11:27:48.299Z,6.60
2022-09-01T11:30:35.520Z,7.10
2022-09-01T11:33:33.976Z,6.88
2022-09-01T11:36:21.592Z,5.50
2022-09-01T11:39:09.199Z,7.93
2022-09-01T11:41:40.315Z,7.20
2022-09-01T11:44:16.967Z,7.30
2022-09-01T11:46:45.611Z,6.40
2022-09-01T11:49:37.499Z,7.78
2022-09-01T11:52:05.223Z,7.32
2022-09-01T11:54:41.263Z,4.97
2022-09-01T11:57:22.513Z,6.78
2022-09-01T11:59:49.499Z,6.05
2022-09-01T12:02:23.102Z,6.15
2022-09-01T12:04:50.654Z,7.20
2022-09-01T12:07:33.862Z,7.18
2022-09-01T12:10:00.546Z,6.95
2022-09-01T12:12:30.154Z,8.68
2022-09-01T12:15:07.033Z,7.10
2022-09-01T12:17:35.360Z,4.70
2022-09-01T12:20:28.127Z,5.43
2022-09-01T12:22:55.931Z,8.75
2022-09-01T12:25:26.074Z,5.78
2022-09-01T12:27:53.303Z,4.25
2022-09-01T12:30:21.471Z,4.88
2022-09-01T12:32:48.468Z,6.03
2022-09-01T12:35:23.244Z,5.10
2022-09-01T12:37:51.759Z,4.57
2022-09-01T12:40:36.902Z,3.70
2022-09-01T12:43:03.480Z,5.43
2022-09-01T12:45:47.814Z,4.50
2022-09-01T12:48:49.500Z,4.68
2022-09-01T12:51:24.545Z,4.50
2022-09-01T12:53:58.595Z,4.50
2022-09-01T12:56:31.539Z,4.20
2022-09-01T12:59:17.208Z,5.32
2022-09-01T13:01:44.951Z,4.38
2022-09-01T13:04:22.567Z,3.28
2022-09-01T13:06:50.315Z,5.40
2022-09-01T13:09:17.714Z,5.35
2022-09-01T13:14:33.946Z,3.53
2022-09-01T13:17:01.171Z,4.82
2022-09-01T13:19:30.530Z,3.38
2022-09-01T13:21:57.569Z,4.10
2022-09-01T13:24:28.082Z,4.40
2022-09-01T13:29:43.717Z,7.78
2022-09-01T13:32:17.968Z,3.60
2022-09-01T13:34:46.414Z,4.60
2022-09-01T13:37:12.880Z,3.92
2022-09-01T13:39:39.335Z,6.45
2022-09-01T13:42:06.483Z,4.63
2022-09-01T13:44:35.278Z,6.63
2022-09-01T13:47:28.618Z,5.85
2022-09-01T13:52:35.147Z,3.13
2022-09-01T13:55:01.734Z,3.58
2022-09-01T13:57:28.187Z,2.65
2022-09-01T14:00:03.969Z,3.83
2022-09-01T14:02:40.994Z,4.43
2022-09-01T14:05:08.091Z,3.42
2022-09-01T14:07:34.736Z,5.35
2022-09-01T14:10:01.671Z,6.22
2022-09-01T14:12:28.485Z,3.05
2022-09-01T14:15:12.107Z,4.00
2022-09-01T14:17:41.193Z,6.00
2022-09-01T14:20:12.844Z,2.72
2022-09-01T14:22:40.840Z,3.42
2022-09-01T14:26:34.977Z,5.88
2022-09-01T14:29:02.758Z,5.72
2022-09-01T14:31:29.686Z,4.43
2022-09-01T14:33:56.294Z,3.30
2022-09-01T14:36:25.080Z,3.78
2022-09-01T14:38:52.738Z,4.47
2022-09-01T14:41:27.093Z,7.53
2022-09-01T14:43:57.604Z,3.92
2022-09-01T14:46:26.737Z,3.13
2022-09-01T14:48:53.288Z,2.75
2022-09-01T14:54:17.744Z,3.45
2022-09-01T14:57:28.147Z,2.10
2022-09-01T14:59:31.040Z,3.80
2022-09-01T15:01:57.563Z,2.72
2022-09-01T15:04:24.202Z,2.95
2022-09-01T15:06:51.102Z,2.70
2022-09-01T15:09:19.193Z,2.20
2022-09-01T15:11:46.395Z,3.03
2022-09-01T15:14:13.111Z,2.83
2022-09-01T15:16:41.359Z,3.30
2022-09-01T15:19:10.903Z,6.43
2022-09-01T15:21:38.822Z,3.45
2022-09-01T15:24:07.264Z,2.33
2022-09-01T15:26:34.419Z,3.17
2022-09-01T15:29:04.476Z,4.15
2022-09-01T15:31:33.524Z,5.65
2022-09-01T15:34:02.175Z,3.65
2022-09-01T15:36:29.751Z,3.03
2022-09-01T15:38:57.639Z,4.25
2022-09-01T15:41:27.494Z,2.83
2022-09-01T15:43:54.817Z,6.30
2022-09-01T15:46:21.757Z,2.70
2022-09-01T15:48:48.348Z,4.60
2022-09-01T15:51:24.091Z,2.63
2022-09-01T15:53:52.440Z,2.63
2022-09-01T15:56:18.897Z,2.85
2022-09-01T15:59:04.915Z,4.85
2022-09-01T16:01:34.395Z,2.35
2022-09-01T16:04:01.367Z,2.78
2022-09-01T16:06:28.203Z,3.50
2022-09-01T16:08:55.410Z,4.70
2022-09-01T16:11:23.536Z,3.13
2022-09-01T16:13:54.755Z,3.70
2022-09-01T16:16:57.590Z,2.25
2022-09-01T16:19:33.343Z,4.07
2022-09-01T16:22:12.057Z,4.00
2022-09-01T16:24:47.712Z,2.35
2022-09-01T16:27:17.866Z,6.07
2022-09-01T16:29:49.069Z,3.63
2022-09-01T16:32:16.221Z,3.30
2022-09-01T16:34:46.905Z,3.13
2022-09-01T16:37:36.894Z,3.03
2022-09-01T16:40:24.817Z,3.50
2022-09-01T16:43:16.223Z,4.45
2022-09-01T16:46:04.094Z,3.83
2022-09-01T16:48:47.091Z,2.92
2022-09-01T16:51:26.500Z,2.85
2022-09-01T16:54:10.201Z,3.58
2022-09-01T16:56:48.929Z,2.85
2022-09-01T16:59:31.309Z,2.97
2022-09-01T17:02:06.814Z,4.78
2022-09-01T17:04:42.663Z,3.50
2022-09-01T17:07:29.687Z,4.33
2022-09-01T17:12:46.872Z,5.70
2022-09-01T17:15:18.203Z,2.90
2022-09-01T17:17:53.226Z,6.82
2022-09-01T17:20:23.993Z,2.92
2022-09-01T17:22:53.547Z,5.53
2022-09-01T17:25:37.555Z,4.38
2022-09-01T17:28:15.392Z,3.95
2022-09-01T17:30:53.002Z,4.20
2022-09-01T17:33:33.519Z,4.47
2022-09-01T17:36:10.323Z,4.00
2022-09-01T17:38:51.390Z,4.25
2022-09-01T17:41:30.132Z,5.20
2022-09-01T17:44:12.761Z,4.25
2022-09-01T17:46:42.242Z,7.35
2022-09-01T17:49:46.132Z,5.80
2022-09-01T17:52:37.681Z,5.68
2022-09-01T17:55:21.958Z,8.88
2022-09-01T17:58:12.040Z,5.95
2022-09-01T18:01:01.708Z,6.05
2022-09-01T18:03:45.900Z,5.82
2022-09-01T18:06:27.236Z,4.63
2022-09-01T18:08:58.280Z,4.20
2022-09-01T18:11:50.994Z,4.13
2022-09-01T18:15:08.660Z,5.88
2022-09-01T18:17:41.527Z,5.35
2022-09-01T18:20:12.071Z,9.18
2022-09-01T18:22:44.507Z,7.40
2022-09-01T18:25:23.320Z,6.88
2022-09-01T18:27:50.316Z,6.68
2022-09-01T18:30:36.246Z,5.70
2022-09-01T18:33:19.482Z,7.75
2022-09-01T18:36:21.300Z,6.80
2022-09-01T18:38:55.668Z,6.72
2022-09-01T18:41:48.691Z,6.22
2022-09-01T18:44:46.943Z,4.68
2022-09-01T18:47:16.266Z,8.68
2022-09-01T18:50:15.331Z,6.43
2022-09-01T18:52:55.165Z,6.28
2022-09-01T18:55:28.001Z,4.88
2022-09-01T18:58:06.477Z,6.05
2022-09-01T19:00:56.841Z,7.82
2022-09-01T19:03:35.394Z,5.10
2022-09-01T19:06:29.563Z,5.03
2022-09-01T19:09:14.364Z,7.35
2022-09-01T19:12:05.724Z,4.40
2022-09-01T19:14:47.683Z,10.93
2022-09-01T19:17:17.214Z,4.93
2022-09-01T19:19:54.251Z,7.60
2022-09-01T19:25:26.271Z,4.95
2022-09-01T19:28:16.977Z,10.70
2022-09-01T19:30:51.668Z,5.82
2022-09-01T19:33:25.587Z,4.60
2022-09-01T19:35:57.561Z,9.90
2022-09-01T19:38:27.886Z,7.47
2022-09-01T19:41:17.996Z,7.63
2022-09-01T19:43:44.653Z,7.68
2022-09-01T19:46:26.301Z,5.75
2022-09-01T19:49:10.439Z,9.52
2022-09-01T19:51:51.157Z,6.03
2022-09-01T19:54:28.597Z,7.53
2022-09-01T19:57:02.534Z,6.53
2022-09-01T19:59:46.809Z,7.18
2022-09-01T20:02:36.097Z,7.68
2022-09-01T20:05:31.252Z,5.15
2022-09-01T20:08:08.272Z,5.65
2022-09-01T20:13:09.991Z,5.07
2022-09-01T20:16:09.243Z,5.28
2022-09-01T20:18:49.687Z,5.95
2022-09-01T20:21:21.375Z,5.03
2022-09-01T20:24:02.806Z,4.47
2022-09-01T20:27:06.090Z,5.10
2022-09-01T20:29:46.591Z,5.85
2022-09-01T20:32:17.944Z,5.00
2022-09-01T20:34:54.919Z,4.53
2022-09-01T20:37:28.460Z,4.85
2022-09-01T20:40:01.794Z,6.18
2022-09-01T20:42:48.423Z,5.65
2022-09-01T20:45:22.010Z,5.47
2022-09-01T20:47:58.378Z,7.90
2022-09-01T20:50:53.944Z,8.02
2022-09-01T20:53:29.334Z,4.97
2022-09-01T20:56:06.464Z,5.13
2022-09-01T20:58:45.468Z,5.40
2022-09-01T21:01:36.201Z,5.18
2022-09-01T21:04:13.505Z,4.22
2022-09-01T21:07:13.719Z,5.30
2022-09-01T21:09:53.988Z,4.65
2022-09-01T21:12:33.218Z,5.57
2022-09-01T21:15:08.456Z,5.57
2022-09-01T21:17:49.920Z,4.78
2022-09-01T21:20:30.750Z,4.82
2022-09-01T21:22:57.506Z,5.35
2022-09-01T21:25:24.043Z,4.50
2022-09-01T21:27:55.727Z,5.85
2022-09-01T21:30:23.999Z,5.85
2022-09-01T21:32:53.695Z,6.10
2022-09-01T21:35:21.912Z,6.22
2022-09-01T21:37:48.815Z,5.43
2022-09-01T21:40:16.726Z,6.78
2022-09-01T21:42:54.472Z,4.93
2022-09-01T21:45:22.175Z,5.07
2022-09-01T21:47:50.119Z,5.40
2022-09-01T21:50:19.079Z,5.70
2022-09-01T21:52:45.521Z,4.90
2022-09-01T21:57:39.143Z,5.35
2022-09-01T22:00:20.064Z,5.80
2022-09-01T22:02:47.043Z,5.97
2022-09-01T22:05:14.107Z,9.60
2022-09-01T22:07:43.170Z,4.35
2022-09-01T22:10:13.180Z,6.00
2022-09-01T22:12:42.261Z,5.70
2022-09-01T22:15:11.029Z,4.18
2022-09-01T22:17:37.618Z,5.53
2022-09-01T22:20:06.648Z,4.88
2022-09-01T22:22:33.948Z,5.18
2022-09-01T22:25:05.608Z,8.32
2022-09-01T22:27:32.183Z,5.00
2022-09-01T22:32:26.920Z,6.00
2022-09-01T22:34:56.321Z,5.93
2022-09-01T22:39:49.735Z,5.75
2022-09-01T22:42:16.189Z,5.50
2022-09-01T22:47:08.956Z,6.10
2022-09-01T22:52:01.937Z,10.27
2022-09-01T22:54:28.702Z,7.68
2022-09-01T22:59:25.855Z,5.40
2022-09-01T23:01:52.986Z,7.70
2022-09-01T23:04:19.567Z,6.25
2022-09-01T23:09:15.272Z,7.45
2022-09-01T23:11:42.704Z,5.55
2022-09-01T23:14:09.167Z,5.55
2022-09-01T23:19:02.763Z,8.30
2022-09-01T23:21:32.928Z,7.07
2022-09-01T23:24:00.216Z,4.78
2022-09-01T23:26:28.256Z,8.15
2022-09-01T23:28:55.394Z,7.13
2022-09-01T23:31:24.882Z,8.57
2022-09-01T23:33:51.718Z,9.75
2022-09-01T23:36:20.946Z,10.25
2022-09-01T23:38:48.546Z,6.57
2022-09-01T23:41:18.030Z,6.15
2022-09-01T23:43:44.899Z,9.38
2022-09-01T23:46:26.403Z,9.23
2022-09-01T23:48:53.495Z,5.93
2022-09-01T23:51:20.892Z,7.75
2022-09-01T23:53:48.355Z,9.07
2022-09-01T23:56:17.938Z,9.50
2022-09-01T23:58:44.451Z,7.40
